createdAt,value
2023-04-03T00:01:58.546Z,101174.99
2023-04-03T00:07:04.165Z,101182.14
2023-04-03T00:12:09.833Z,101187.31
2023-04-03T00:17:16.236Z,101185.96
2023-04-03T00:22:21.831Z,101191.66
2023-04-03T00:27:27.530Z,101189.79
2023-04-03T00:32:33.377Z,101193.61
2023-04-03T00:37:39.456Z,101193.66
2023-04-03T00:42:47.311Z,101199.73
2023-04-03T00:47:54.117Z,101198.85
2023-04-03T00:53:03.564Z,101198.99
2023-04-03T00:58:10.334Z,101201.24
2023-04-03T01:03:16.546Z,101207.66
2023-04-03T01:08:21.994Z,101213.30
2023-04-03T01:13:31.544Z,101216.79
2023-04-03T01:18:40.074Z,101216.41
2023-04-03T01:24:02.870Z,101227.95
2023-04-03T01:29:08.465Z,101232.73
2023-04-03T01:34:14.460Z,101243.23
2023-04-03T01:39:20.691Z,101248.60
2023-04-03T01:44:26.602Z,101252.02
2023-04-03T01:49:32.189Z,101259.18
2023-04-03T01:54:37.866Z,101263.93
2023-04-03T01:59:43.521Z,101264.20
2023-04-03T02:04:49.277Z,101271.64
2023-04-03T02:09:54.754Z,101279.17
2023-04-03T02:15:01.861Z,101282.05
2023-04-03T02:20:09.578Z,101287.15
2023-04-03T02:25:15.305Z,101287.45
2023-04-03T02:30:21.218Z,101290.05
2023-04-03T02:35:27.074Z,101290.30
2023-04-03T02:40:34.374Z,101295.78
2023-04-03T02:45:40.809Z,101296.34
2023-04-03T02:50:46.678Z,101303.61
2023-04-03T02:55:52.255Z,101305.60
2023-04-03T03:00:57.754Z,101303.07
2023-04-03T03:06:08.957Z,101308.38
2023-04-03T03:11:15.012Z,101306.19
2023-04-03T03:16:21.563Z,101309.30
2023-04-03T03:21:28.228Z,101308.51
2023-04-03T03:26:34.478Z,101313.27
2023-04-03T03:31:41.477Z,101315.33
2023-04-03T03:36:46.962Z,101315.02
2023-04-03T03:41:54.466Z,101319.83
2023-04-03T03:47:00.947Z,101320.43
2023-04-03T03:52:11.499Z,101319.49
2023-04-03T03:57:17.268Z,101322.71
2023-04-03T04:02:23.357Z,101322.85
2023-04-03T04:07:30.242Z,101324.81
2023-04-03T04:12:36.899Z,101326.95
2023-04-03T04:17:43.253Z,101332.05
2023-04-03T04:22:51.245Z,101337.32
2023-04-03T04:27:57.305Z,101344.46
2023-04-03T04:33:03.489Z,101346.56
2023-04-03T04:38:10.468Z,101348.55
2023-04-03T04:43:17.159Z,101353.64
2023-04-03T04:48:24.795Z,101360.27
2023-04-03T04:53:30.581Z,101369.36
2023-04-03T04:58:36.532Z,101371.06
2023-04-03T05:03:42.950Z,101375.93
2023-04-03T05:09:04.372Z,101378.64
2023-04-03T05:14:10.738Z,101382.94
2023-04-03T05:19:16.694Z,101376.93
2023-04-03T05:24:22.921Z,101385.21
2023-04-03T05:29:28.684Z,101386.14
2023-04-03T05:34:35.267Z,101387.11
2023-04-03T05:39:42.131Z,101385.51
2023-04-03T05:44:49.744Z,101386.99
2023-04-03T05:49:55.592Z,101393.08
2023-04-03T05:55:01.490Z,101396.45
2023-04-03T06:00:15.077Z,101402.27
2023-04-03T06:05:22.166Z,101407.76
2023-04-03T06:10:28.538Z,101405.55
2023-04-03T06:15:34.861Z,101411.90
2023-04-03T06:20:41.026Z,101416.66
2023-04-03T06:25:47.081Z,101422.63
2023-04-03T06:30:52.644Z,101427.23
2023-04-03T06:36:03.948Z,101438.73
2023-04-03T06:41:09.387Z,101441.08
2023-04-03T06:46:18.147Z,101435.13
2023-04-03T06:51:27.077Z,101437.20
2023-04-03T06:56:33.293Z,101438.25
2023-04-03T07:01:43.032Z,101442.20
2023-04-03T07:06:49.153Z,101438.55
2023-04-03T07:11:54.972Z,101444.48
2023-04-03T07:17:00.648Z,101445.34
2023-04-03T07:22:06.098Z,101452.92
2023-04-03T07:27:13.812Z,101457.97
2023-04-03T07:32:19.744Z,101460.02
2023-04-03T07:37:26.041Z,101458.80
2023-04-03T07:42:31.658Z,101464.13
2023-04-03T07:47:37.215Z,101469.26
2023-04-03T07:52:42.922Z,101472.98
2023-04-03T07:57:48.542Z,101474.23
2023-04-03T08:02:54.163Z,101473.73
2023-04-03T08:08:00.322Z,101473.31
2023-04-03T08:13:06.711Z,101471.70
2023-04-03T08:18:12.499Z,101469.78
2023-04-03T08:23:20.084Z,101473.26
2023-04-03T08:28:26.249Z,101477.08
2023-04-03T08:33:31.679Z,101479.96
2023-04-03T08:38:38.301Z,101482.97
2023-04-03T08:43:58.705Z,101492.21
2023-04-03T08:49:05.947Z,101490.71
2023-04-03T08:54:24.443Z,101495.95
2023-04-03T08:59:33.897Z,101495.02
2023-04-03T09:04:39.359Z,101490.69
2023-04-03T09:09:46.240Z,101492.63
2023-04-03T09:15:03.233Z,101496.39
2023-04-03T09:20:21.288Z,101504.90
2023-04-03T09:25:31.691Z,101503.09
2023-04-03T09:30:39.388Z,101504.70
2023-04-03T09:35:48.734Z,101503.34
2023-04-03T09:41:08.606Z,101511.15
2023-04-03T09:46:29.793Z,101512.96
2023-04-03T09:51:35.466Z,101509.65
2023-04-03T09:56:41.049Z,101507.86
2023-04-03T10:02:00.851Z,101500.38
2023-04-03T10:07:31.095Z,101512.97
2023-04-03T10:12:36.620Z,101504.15
2023-04-03T10:17:56.425Z,101519.19
2023-04-03T10:23:15.572Z,101525.75
2023-04-03T10:28:28.678Z,101512.03
2023-04-03T10:33:45.510Z,101508.81
2023-04-03T10:39:04.472Z,101512.13
2023-04-03T10:44:21.458Z,101507.60
2023-04-03T10:55:05.086Z,101496.22
2023-04-03T11:00:20.785Z,101498.56
2023-04-03T11:05:33.478Z,101497.20
2023-04-03T11:10:44.008Z,101506.39
2023-04-03T11:15:50.377Z,101504.61
2023-04-03T11:21:05.143Z,101497.81
2023-04-03T11:26:14.537Z,101505.20
2023-04-03T11:31:44.363Z,101500.39
2023-04-03T11:36:55.250Z,101489.90
2023-04-03T11:42:13.497Z,101493.34
2023-04-03T11:47:47.058Z,101483.14
2023-04-03T11:53:04.970Z,101477.61
2023-04-03T11:58:17.614Z,101478.06
2023-04-03T12:03:35.656Z,101475.84
2023-04-03T12:08:48.700Z,101477.35
2023-04-03T12:14:14.599Z,101469.09
2023-04-03T12:19:42.317Z,101462.00
2023-04-03T12:24:51.651Z,101481.22
2023-04-03T12:30:05.151Z,101470.81
2023-04-03T12:35:22.613Z,101468.80
2023-04-03T12:40:37.220Z,101473.85
2023-04-03T12:45:49.712Z,101472.15
2023-04-03T12:50:55.910Z,101473.24
2023-04-03T12:56:22.351Z,101468.71
2023-04-03T13:01:28.995Z,101472.75
2023-04-03T13:06:39.402Z,101476.88
2023-04-03T13:11:46.694Z,101472.02
2023-04-03T13:16:59.787Z,101476.90
2023-04-03T13:22:09.318Z,101475.68
2023-04-03T13:27:15.758Z,101476.71
2023-04-03T13:32:24.778Z,101474.10
2023-04-03T13:37:32.697Z,101470.81
2023-04-03T13:42:42.232Z,101467.88
2023-04-03T13:47:49.861Z,101468.23
2023-04-03T13:53:02.284Z,101466.31
2023-04-03T13:58:24.564Z,101473.20
2023-04-03T14:03:33.954Z,101471.48
2023-04-03T14:08:43.488Z,101468.40
2023-04-03T14:13:51.411Z,101473.55
2023-04-03T14:18:57.602Z,101467.07
2023-04-03T14:24:03.480Z,101466.19
2023-04-03T14:29:11.835Z,101465.74
2023-04-03T14:34:18.442Z,101466.42
2023-04-03T14:39:24.085Z,101468.03
2023-04-03T14:44:29.770Z,101460.48
2023-04-03T14:49:36.015Z,101460.30
2023-04-03T14:54:41.428Z,101462.91
2023-04-03T14:59:47.380Z,101465.56
2023-04-03T15:04:53.608Z,101468.98
2023-04-03T15:09:59.434Z,101473.73
2023-04-03T15:15:06.182Z,101473.96
2023-04-03T15:20:20.346Z,101473.63
2023-04-03T15:25:27.204Z,101475.79
2023-04-03T15:30:33.610Z,101475.79
2023-04-03T15:35:39.198Z,101479.17
2023-04-03T15:40:45.552Z,101479.77
2023-04-03T15:45:51.811Z,101481.41
2023-04-03T15:50:59.072Z,101482.19
2023-04-03T15:56:05.800Z,101482.40
2023-04-03T16:01:14.586Z,101481.55
2023-04-03T16:06:21.209Z,101483.68
2023-04-03T16:11:27.898Z,101485.66
2023-04-03T16:16:34.168Z,101485.17
2023-04-03T16:21:39.923Z,101483.50
2023-04-03T16:26:45.542Z,101478.64
2023-04-03T16:31:53.275Z,101476.77
2023-04-03T16:36:59.980Z,101478.95
2023-04-03T16:42:06.393Z,101488.17
2023-04-03T16:47:14.018Z,101487.73
2023-04-03T16:52:20.204Z,101490.48
2023-04-03T16:57:26.628Z,101490.15
2023-04-03T17:02:32.762Z,101502.59
2023-04-03T17:07:39.410Z,101511.27
2023-04-03T17:12:45.444Z,101513.79
2023-04-03T17:17:54.308Z,101515.23
2023-04-03T17:22:59.910Z,101511.44
2023-04-03T17:28:05.713Z,101519.33
2023-04-03T17:33:11.533Z,101520.39
2023-04-03T17:38:17.557Z,101523.31
2023-04-03T17:43:23.417Z,101530.23
2023-04-03T17:48:29.601Z,101534.27
2023-04-03T17:53:36.072Z,101536.21
2023-04-03T17:58:42.672Z,101536.61
2023-04-03T18:03:51.814Z,101540.61
2023-04-03T18:09:03.459Z,101532.72
2023-04-03T18:14:10.564Z,101535.59
2023-04-03T18:19:23.308Z,101536.90
2023-04-03T18:24:32.661Z,101540.30
2023-04-03T18:29:41.158Z,101542.45
2023-04-03T18:34:46.939Z,101543.17
2023-04-03T18:39:52.601Z,101546.36
2023-04-03T18:45:01.369Z,101549.85
2023-04-03T18:50:08.598Z,101548.36
2023-04-03T18:55:16.367Z,101549.64
2023-04-03T19:00:22.323Z,101550.02
2023-04-03T19:05:28.703Z,101553.88
2023-04-03T19:10:34.311Z,101552.20
2023-04-03T19:15:40.907Z,101549.24
2023-04-03T19:20:46.749Z,101548.05
2023-04-03T19:26:00.904Z,101545.67
2023-04-03T19:31:14.028Z,101552.08
2023-04-03T19:36:19.804Z,101557.51
2023-04-03T19:41:28.544Z,101557.42
2023-04-03T19:46:35.216Z,101563.64
2023-04-03T19:51:41.019Z,101563.04
2023-04-03T19:56:46.647Z,101561.95
2023-04-03T20:01:52.914Z,101566.52
2023-04-03T20:06:58.756Z,101568.15
2023-04-03T20:12:04.498Z,101569.45
2023-04-03T20:17:10.393Z,101566.98
2023-04-03T20:22:16.288Z,101571.37
2023-04-03T20:27:22.321Z,101569.73
2023-04-03T20:32:27.983Z,101569.27
2023-04-03T20:37:33.867Z,101569.02
2023-04-03T20:42:40.537Z,101567.55
2023-04-03T20:47:46.604Z,101568.80
2023-04-03T20:52:52.342Z,101571.77
2023-04-03T20:58:01.209Z,101572.38
2023-04-03T21:03:07.839Z,101571.19
2023-04-03T21:08:41.127Z,101575.09
2023-04-03T21:14:17.320Z,101575.17
2023-04-03T21:19:22.822Z,101576.06
2023-04-03T21:24:33.094Z,101575.89
2023-04-03T21:29:38.857Z,101569.03
2023-04-03T21:34:44.552Z,101568.98
2023-04-03T21:39:50.054Z,101575.01
2023-04-03T21:44:56.304Z,101572.79
2023-04-03T21:50:02.028Z,101571.46
2023-04-03T21:55:09.441Z,101570.33
2023-04-03T22:00:17.312Z,101575.84
2023-04-03T22:05:23.222Z,101574.94
2023-04-03T22:10:29.527Z,101568.70
2023-04-03T22:15:43.118Z,101569.17
2023-04-03T22:20:49.037Z,101568.10
2023-04-03T22:26:02.713Z,101569.80
2023-04-03T22:31:09.808Z,101569.40
2023-04-03T22:36:15.619Z,101568.46
2023-04-03T22:41:21.054Z,101566.77
2023-04-03T22:46:26.708Z,101565.73
2023-04-03T22:51:32.099Z,101560.63
2023-04-03T22:56:37.733Z,101555.78
2023-04-03T23:01:43.637Z,101555.68
2023-04-03T23:06:49.367Z,101560.08
2023-04-03T23:11:54.766Z,101558.15
2023-04-03T23:17:05.530Z,101556.92
2023-04-03T23:22:12.270Z,101553.46
2023-04-03T23:27:17.665Z,101556.55
2023-04-03T23:32:23.117Z,101555.84
2023-04-03T23:37:28.955Z,101552.09
2023-04-03T23:42:34.446Z,101547.61
2023-04-03T23:47:39.975Z,101545.39
2023-04-03T23:52:45.761Z,101538.46
2023-04-03T23:57:51.922Z,101534.55
